createdAt,value
2023-01-21T00:00:45.934Z,997.58
2023-01-21T00:01:45.848Z,997.61
2023-01-21T00:02:45.825Z,997.63
2023-01-21T00:03:45.945Z,997.60
2023-01-21T00:04:45.798Z,997.60
2023-01-21T00:05:45.785Z,997.57
2023-01-21T00:06:45.951Z,997.57
2023-01-21T00:07:45.741Z,997.55
2023-01-21T00:08:45.750Z,997.62
2023-01-21T00:09:45.774Z,997.60
2023-01-21T00:10:45.702Z,997.62
2023-01-21T00:11:45.887Z,997.65
2023-01-21T00:12:45.648Z,997.65
2023-01-21T00:13:45.643Z,997.69
2023-01-21T00:14:45.624Z,997.70
2023-01-21T00:15:45.636Z,997.69
2023-01-21T00:16:45.615Z,997.70
2023-01-21T00:17:45.603Z,997.73
2023-01-21T00:18:45.549Z,997.77
2023-01-21T00:19:45.743Z,997.75
2023-01-21T00:20:45.533Z,997.79
2023-01-21T00:21:45.522Z,997.75
2023-01-21T00:22:45.486Z,997.79
2023-01-21T00:23:45.464Z,997.80
2023-01-21T00:24:45.656Z,997.83
2023-01-21T00:25:45.462Z,997.80
2023-01-21T00:26:45.648Z,997.83
2023-01-21T00:27:45.435Z,997.81
2023-01-21T00:28:45.387Z,997.82
2023-01-21T00:29:45.383Z,997.85
2023-01-21T00:30:45.459Z,997.83
2023-01-21T00:31:45.513Z,997.81
2023-01-21T00:32:45.335Z,997.82
2023-01-21T00:33:45.376Z,997.85
2023-01-21T00:34:45.309Z,997.90
2023-01-21T00:35:45.288Z,997.87
2023-01-21T00:36:45.331Z,997.90
2023-01-21T00:37:45.465Z,997.89
2023-01-21T00:38:45.243Z,997.92
2023-01-21T00:39:45.227Z,997.91
2023-01-21T00:40:45.410Z,997.87
2023-01-21T00:41:45.206Z,997.87
2023-01-21T00:42:45.192Z,997.89
2023-01-21T00:43:45.169Z,997.88
2023-01-21T00:44:45.164Z,997.90
2023-01-21T00:45:45.137Z,997.90
2023-01-21T00:46:45.387Z,997.92
2023-01-21T00:47:45.084Z,997.90
2023-01-21T00:48:45.067Z,997.90
2023-01-21T00:49:45.042Z,997.92
2023-01-21T00:50:45.050Z,997.93
2023-01-21T00:51:45.025Z,997.94
2023-01-21T00:52:45.020Z,997.93
2023-01-21T00:53:44.986Z,997.97
2023-01-21T00:54:44.974Z,998.01
2023-01-21T00:55:44.959Z,998.01
2023-01-21T00:56:44.956Z,998.04
2023-01-21T00:57:45.143Z,998.06
2023-01-21T00:58:45.110Z,998.05
2023-01-21T00:59:45.107Z,998.09
2023-01-21T01:00:45.264Z,998.08
2023-01-21T01:01:44.953Z,998.04
2023-01-21T01:02:44.900Z,998.09
2023-01-21T01:03:44.898Z,998.08
2023-01-21T01:04:44.857Z,998.08
2023-01-21T01:05:44.865Z,998.07
2023-01-21T01:06:44.859Z,998.09
2023-01-21T01:07:44.780Z,998.06
2023-01-21T01:08:44.782Z,998.07
2023-01-21T01:09:44.781Z,998.07
2023-01-21T01:10:44.741Z,998.13
2023-01-21T01:11:44.750Z,998.13
2023-01-21T01:12:44.704Z,998.14
2023-01-21T01:13:44.705Z,998.15
2023-01-21T01:14:44.652Z,998.14
2023-01-21T01:15:44.660Z,998.15
2023-01-21T01:16:44.618Z,998.18
2023-01-21T01:17:44.639Z,998.20
2023-01-21T01:18:44.589Z,998.20
2023-01-21T01:19:44.552Z,998.21
2023-01-21T01:20:44.577Z,998.19
2023-01-21T01:21:44.537Z,998.19
2023-01-21T01:22:44.509Z,998.18
2023-01-21T01:23:44.564Z,998.18
2023-01-21T01:24:44.488Z,998.21
2023-01-21T01:25:44.659Z,998.19
2023-01-21T01:26:44.443Z,998.20
2023-01-21T01:27:44.435Z,998.25
2023-01-21T01:28:44.414Z,998.26
2023-01-21T01:29:44.431Z,998.30
2023-01-21T01:30:44.417Z,998.29
2023-01-21T01:31:44.498Z,998.31
2023-01-21T01:32:44.348Z,998.32
2023-01-21T01:33:44.599Z,998.32
2023-01-21T01:34:44.315Z,998.32
2023-01-21T01:35:44.323Z,998.32
2023-01-21T01:36:44.500Z,998.35
2023-01-21T01:37:44.313Z,998.37
2023-01-21T01:38:44.262Z,998.40
2023-01-21T01:39:44.224Z,998.41
2023-01-21T01:40:44.240Z,998.38
2023-01-21T01:41:44.214Z,998.43
2023-01-21T01:42:44.217Z,998.43
2023-01-21T01:43:44.236Z,998.45
2023-01-21T01:44:44.162Z,998.46
2023-01-21T01:45:44.229Z,998.47
2023-01-21T01:46:44.169Z,998.46
2023-01-21T01:47:44.243Z,998.48
2023-01-21T01:48:44.176Z,998.48
2023-01-21T01:49:44.123Z,998.50
2023-01-21T01:50:44.144Z,998.53
2023-01-21T01:51:44.069Z,998.56
2023-01-21T01:52:44.066Z,998.56
2023-01-21T01:53:44.121Z,998.56
2023-01-21T01:54:44.010Z,998.60
2023-01-21T01:55:44.029Z,998.58
2023-01-21T01:56:44.007Z,998.59
2023-01-21T01:57:43.977Z,998.58
2023-01-21T01:58:43.990Z,998.63
2023-01-21T01:59:43.937Z,998.60
2023-01-21T02:00:43.935Z,998.61
2023-01-21T02:01:43.994Z,998.60
2023-01-21T02:02:43.937Z,998.60
2023-01-21T02:03:43.890Z,998.59
2023-01-21T02:04:43.850Z,998.58
2023-01-21T02:05:43.898Z,998.53
2023-01-21T02:06:43.874Z,998.57
2023-01-21T02:07:43.859Z,998.56
2023-01-21T02:08:43.790Z,998.55
2023-01-21T02:09:43.782Z,998.53
2023-01-21T02:10:43.946Z,998.57
2023-01-21T02:11:43.747Z,998.53
2023-01-21T02:12:43.819Z,998.54
2023-01-21T02:13:43.764Z,998.55
2023-01-21T02:14:43.680Z,998.53
2023-01-21T02:15:43.642Z,998.53
2023-01-21T02:16:43.665Z,998.56
2023-01-21T02:17:43.710Z,998.52
2023-01-21T02:18:43.697Z,998.51
2023-01-21T02:19:43.655Z,998.52
2023-01-21T02:20:43.631Z,998.54
2023-01-21T02:21:43.638Z,998.55
2023-01-21T02:22:43.568Z,998.58
2023-01-21T02:23:43.699Z,998.54
2023-01-21T02:24:43.655Z,998.56
2023-01-21T02:25:43.507Z,998.58
2023-01-21T02:26:43.505Z,998.57
2023-01-21T02:27:43.920Z,998.58
2023-01-21T02:28:43.459Z,998.59
2023-01-21T02:29:43.448Z,998.57
2023-01-21T02:30:43.460Z,998.60
2023-01-21T02:31:43.673Z,998.57
2023-01-21T02:32:43.422Z,998.59
2023-01-21T02:33:43.429Z,998.62
2023-01-21T02:34:43.409Z,998.58
2023-01-21T02:35:43.362Z,998.57
2023-01-21T02:36:43.372Z,998.63
2023-01-21T02:37:43.327Z,998.62
2023-01-21T02:38:43.286Z,998.64
2023-01-21T02:39:43.304Z,998.64
2023-01-21T02:40:43.267Z,998.64
2023-01-21T02:41:43.268Z,998.65
2023-01-21T02:42:43.287Z,998.64
2023-01-21T02:43:43.257Z,998.64
2023-01-21T02:44:43.241Z,998.64
2023-01-21T02:45:43.323Z,998.64
2023-01-21T02:46:43.222Z,998.66
2023-01-21T02:47:43.167Z,998.67
2023-01-21T02:48:43.140Z,998.67
2023-01-21T02:49:43.154Z,998.70
2023-01-21T02:50:43.146Z,998.67
2023-01-21T02:51:43.153Z,998.65
2023-01-21T02:52:43.106Z,998.66
2023-01-21T02:53:43.088Z,998.63
2023-01-21T02:54:43.341Z,998.64
2023-01-21T02:55:43.606Z,998.64
2023-01-21T02:56:43.095Z,998.65
2023-01-21T02:57:43.021Z,998.65
2023-01-21T02:58:43.045Z,998.63
2023-01-21T02:59:42.979Z,998.70
2023-01-21T03:00:43.023Z,998.70
2023-01-21T03:01:43.008Z,998.68
2023-01-21T03:02:42.938Z,998.69
2023-01-21T03:03:42.912Z,998.66
2023-01-21T03:04:42.920Z,998.72
2023-01-21T03:05:42.911Z,998.72
2023-01-21T03:06:42.890Z,998.74
2023-01-21T03:07:42.840Z,998.71
2023-01-21T03:08:43.044Z,998.67
2023-01-21T03:09:42.831Z,998.72
2023-01-21T03:10:42.823Z,998.71
2023-01-21T03:11:42.786Z,998.72
2023-01-21T03:12:42.791Z,998.75
2023-01-21T03:13:42.810Z,998.76
2023-01-21T03:14:42.729Z,998.80
2023-01-21T03:15:42.737Z,998.79
2023-01-21T03:16:42.737Z,998.79
2023-01-21T03:17:42.733Z,998.81
2023-01-21T03:18:42.659Z,998.84
2023-01-21T03:19:42.720Z,998.82
2023-01-21T03:20:42.677Z,998.80
2023-01-21T03:21:42.657Z,998.84
2023-01-21T03:22:42.623Z,998.80
2023-01-21T03:23:42.593Z,998.85
2023-01-21T03:24:42.570Z,998.81
2023-01-21T03:25:42.584Z,998.81
2023-01-21T03:26:42.542Z,998.83
2023-01-21T03:27:42.767Z,998.82
2023-01-21T03:28:42.548Z,998.82
2023-01-21T03:29:42.536Z,998.81
2023-01-21T03:30:42.625Z,998.81
2023-01-21T03:31:42.528Z,998.82
2023-01-21T03:32:42.460Z,998.81
2023-01-21T03:33:42.928Z,998.86
2023-01-21T03:34:42.446Z,998.85
2023-01-21T03:35:42.433Z,998.89
2023-01-21T03:36:42.404Z,998.90
2023-01-21T03:37:42.396Z,998.91
2023-01-21T03:38:42.341Z,998.89
2023-01-21T03:39:42.379Z,998.93
2023-01-21T03:40:42.361Z,998.97
2023-01-21T03:41:42.334Z,998.97
2023-01-21T03:42:42.295Z,998.97
2023-01-21T03:43:42.289Z,998.92
2023-01-21T03:44:42.480Z,998.94
2023-01-21T03:45:42.626Z,998.95
2023-01-21T03:46:42.255Z,998.94
2023-01-21T03:47:42.244Z,998.95
2023-01-21T03:48:42.408Z,998.92
2023-01-21T03:49:42.183Z,998.93
2023-01-21T03:50:42.183Z,998.92
2023-01-21T03:51:42.162Z,998.93
2023-01-21T03:52:42.158Z,998.97
2023-01-21T03:53:42.170Z,998.96
2023-01-21T03:54:42.119Z,998.97
2023-01-21T03:55:42.115Z,998.99
2023-01-21T03:56:42.084Z,998.95
2023-01-21T03:57:42.052Z,998.99
2023-01-21T03:58:42.250Z,998.98
2023-01-21T03:59:42.035Z,998.91
2023-01-21T04:00:42.043Z,998.97
2023-01-21T04:01:42.011Z,998.90
2023-01-21T04:02:41.979Z,998.92
2023-01-21T04:03:41.984Z,998.86
2023-01-21T04:04:41.957Z,998.89
2023-01-21T04:05:42.126Z,998.91
2023-01-21T04:06:41.911Z,998.89
2023-01-21T04:07:41.894Z,998.89
2023-01-21T04:08:41.879Z,998.92
2023-01-21T04:09:41.897Z,998.93
2023-01-21T04:10:41.846Z,998.89
2023-01-21T04:11:41.845Z,998.92
2023-01-21T04:12:42.030Z,998.84
2023-01-21T04:13:41.807Z,998.88
2023-01-21T04:14:41.786Z,998.89
2023-01-21T04:15:41.764Z,998.86
2023-01-21T04:16:41.836Z,998.89
2023-01-21T04:17:41.739Z,998.90
2023-01-21T04:18:41.720Z,998.93
2023-01-21T04:19:41.704Z,998.91
2023-01-21T04:20:41.703Z,998.94
2023-01-21T04:21:41.682Z,998.96
2023-01-21T04:22:41.847Z,998.90
2023-01-21T04:23:41.646Z,998.97
2023-01-21T04:24:41.622Z,998.95
2023-01-21T04:25:41.638Z,998.93
2023-01-21T04:26:41.594Z,998.91
2023-01-21T04:27:41.575Z,998.97
2023-01-21T04:28:41.557Z,998.92
2023-01-21T04:29:41.556Z,998.89
2023-01-21T04:30:41.556Z,998.96
2023-01-21T04:31:41.555Z,998.93
2023-01-21T04:32:41.500Z,998.96
2023-01-21T04:33:41.514Z,998.94
2023-01-21T04:34:41.487Z,998.98
2023-01-21T04:35:41.654Z,999.00
2023-01-21T04:36:41.439Z,998.98
2023-01-21T04:37:41.423Z,999.03
2023-01-21T04:38:41.447Z,999.03
2023-01-21T04:39:41.401Z,999.05
2023-01-21T04:40:41.379Z,999.06
2023-01-21T04:41:41.427Z,999.05
2023-01-21T04:42:41.355Z,999.04
2023-01-21T04:43:41.318Z,999.04
2023-01-21T04:44:41.317Z,999.05
2023-01-21T04:45:41.335Z,999.13
2023-01-21T04:46:41.277Z,999.11
2023-01-21T04:47:41.293Z,999.11
2023-01-21T04:48:41.257Z,999.12
2023-01-21T04:49:41.237Z,999.15
2023-01-21T04:50:41.222Z,999.17
2023-01-21T04:51:41.224Z,999.21
2023-01-21T04:52:41.194Z,999.18
2023-01-21T04:53:41.223Z,999.21
2023-01-21T04:54:41.158Z,999.24
2023-01-21T04:55:41.143Z,999.25
2023-01-21T04:56:41.145Z,999.22
2023-01-21T04:57:41.162Z,999.23
2023-01-21T04:58:41.284Z,999.27
2023-01-21T04:59:41.065Z,999.25
2023-01-21T05:00:41.061Z,999.33
2023-01-21T05:01:41.061Z,999.29
2023-01-21T05:02:41.074Z,999.38
2023-01-21T05:03:41.252Z,999.39
2023-01-21T05:04:41.011Z,999.41
2023-01-21T05:05:40.997Z,999.40
2023-01-21T05:06:40.972Z,999.42
2023-01-21T05:07:40.946Z,999.43
2023-01-21T05:08:40.959Z,999.36
2023-01-21T05:09:40.911Z,999.45
2023-01-21T05:10:40.896Z,999.45
2023-01-21T05:11:40.884Z,999.44
2023-01-21T05:12:40.904Z,999.43
2023-01-21T05:13:40.870Z,999.41
2023-01-21T05:14:40.839Z,999.48
2023-01-21T05:15:40.857Z,999.46
2023-01-21T05:16:40.809Z,999.44
2023-01-21T05:17:40.778Z,999.53
2023-01-21T05:18:40.802Z,999.53
2023-01-21T05:19:40.744Z,999.45
2023-01-21T05:20:40.747Z,999.54
2023-01-21T05:21:40.773Z,999.52
2023-01-21T05:22:40.726Z,999.56
2023-01-21T05:23:40.687Z,999.53
2023-01-21T05:24:40.680Z,999.52
2023-01-21T05:25:40.666Z,999.52
2023-01-21T05:26:40.623Z,999.56
2023-01-21T05:27:40.605Z,999.59
2023-01-21T05:28:40.626Z,999.56
2023-01-21T05:29:40.584Z,999.61
2023-01-21T05:30:41.808Z,999.57
2023-01-21T05:31:40.623Z,999.52
2023-01-21T05:32:40.529Z,999.55
2023-01-21T05:33:40.576Z,999.60
2023-01-21T05:34:40.488Z,999.55
2023-01-21T05:35:40.489Z,999.54
2023-01-21T05:36:40.470Z,999.60
2023-01-21T05:37:40.440Z,999.61
2023-01-21T05:38:40.420Z,999.61
2023-01-21T05:39:40.419Z,999.63
2023-01-21T05:40:40.402Z,999.70
2023-01-21T05:41:40.369Z,999.73
2023-01-21T05:42:40.358Z,999.72
2023-01-21T05:43:40.341Z,999.67
2023-01-21T05:44:40.336Z,999.69
2023-01-21T05:45:40.357Z,999.70
2023-01-21T05:46:40.290Z,999.69
2023-01-21T05:47:40.312Z,999.71
2023-01-21T05:48:40.266Z,999.72
2023-01-21T05:49:40.243Z,999.65
2023-01-21T05:50:40.263Z,999.70
2023-01-21T05:51:40.230Z,999.73
2023-01-21T05:52:40.242Z,999.72
2023-01-21T05:53:40.207Z,999.73
2023-01-21T05:54:52.469Z,999.75
2023-01-21T05:55:40.177Z,999.79
2023-01-21T05:56:40.332Z,999.82
2023-01-21T05:57:40.103Z,999.83
2023-01-21T05:58:40.109Z,999.90
2023-01-21T05:59:40.296Z,999.81
2023-01-21T06:00:40.106Z,999.84
2023-01-21T06:01:40.066Z,999.84
2023-01-21T06:02:40.156Z,999.89
2023-01-21T06:03:40.144Z,999.90
2023-01-21T06:04:40.029Z,999.99
2023-01-21T06:05:40.013Z,999.93
2023-01-21T06:06:40.003Z,999.96
2023-01-21T06:07:40.157Z,999.99
2023-01-21T06:08:39.946Z,999.95
2023-01-21T06:09:39.933Z,999.91
2023-01-21T06:10:39.912Z,999.95
2023-01-21T06:11:39.889Z,999.93
2023-01-21T06:12:39.864Z,999.95
2023-01-21T06:13:39.857Z,999.91
2023-01-21T06:14:39.849Z,999.95
2023-01-21T06:15:39.948Z,999.92
2023-01-21T06:16:39.786Z,999.91
2023-01-21T06:17:39.807Z,999.98
2023-01-21T06:18:39.781Z,999.95
2023-01-21T06:19:39.723Z,1000.01
2023-01-21T06:20:39.747Z,999.94
2023-01-21T06:21:39.732Z,999.94
2023-01-21T06:22:39.723Z,999.99
2023-01-21T06:23:39.681Z,1000.05
2023-01-21T06:24:39.659Z,1000.00
2023-01-21T06:25:39.651Z,1000.04
2023-01-21T06:26:39.618Z,1000.04
2023-01-21T06:27:39.595Z,1000.03
2023-01-21T06:28:39.618Z,1000.03
2023-01-21T06:29:39.585Z,1000.05
2023-01-21T06:30:39.576Z,1000.06
2023-01-21T06:31:39.816Z,1000.05
2023-01-21T06:32:39.518Z,1000.08
2023-01-21T06:33:39.550Z,1000.12
2023-01-21T06:34:39.492Z,1000.14
2023-01-21T06:35:39.515Z,1000.15
2023-01-21T06:36:39.451Z,1000.16
2023-01-21T06:37:39.453Z,1000.21
2023-01-21T06:38:39.444Z,1000.22
2023-01-21T06:39:39.437Z,1000.23
2023-01-21T06:40:39.394Z,1000.22
2023-01-21T06:41:39.390Z,1000.26
2023-01-21T06:42:39.369Z,1000.36
2023-01-21T06:43:39.365Z,1000.32
2023-01-21T06:44:39.328Z,1000.25
2023-01-21T06:45:39.511Z,1000.41
2023-01-21T06:46:43.488Z,1000.38
2023-01-21T06:47:39.251Z,1000.38
2023-01-21T06:48:39.281Z,1000.39
2023-01-21T06:49:39.271Z,1000.40
2023-01-21T06:50:39.208Z,1000.38
2023-01-21T06:51:39.216Z,1000.39
2023-01-21T06:52:39.178Z,1000.39
2023-01-21T06:53:39.161Z,1000.38
2023-01-21T06:54:39.164Z,1000.41
2023-01-21T06:55:39.135Z,1000.45
2023-01-21T06:56:39.121Z,1000.47
2023-01-21T06:57:39.516Z,1000.47
2023-01-21T06:58:39.329Z,1000.48
2023-01-21T06:59:39.056Z,1000.48
2023-01-21T07:00:39.075Z,1000.47
2023-01-21T07:01:39.072Z,1000.53
2023-01-21T07:02:39.041Z,1000.52
2023-01-21T07:03:39.029Z,1000.53
2023-01-21T07:04:39.226Z,1000.53
2023-01-21T07:05:39.003Z,1000.53
2023-01-21T07:06:39.144Z,1000.51
2023-01-21T07:07:38.938Z,1000.57
2023-01-21T07:08:39.130Z,1000.54
2023-01-21T07:09:38.915Z,1000.52
2023-01-21T07:10:38.881Z,1000.50
2023-01-21T07:11:38.889Z,1000.52
2023-01-21T07:12:38.877Z,1000.54
2023-01-21T07:13:38.828Z,1000.54
2023-01-21T07:14:38.857Z,1000.56
2023-01-21T07:15:38.816Z,1000.56
2023-01-21T07:16:38.786Z,1000.56
2023-01-21T07:17:38.769Z,1000.58
2023-01-21T07:18:38.764Z,1000.57
2023-01-21T07:19:38.723Z,1000.55
2023-01-21T07:20:40.802Z,1000.56
2023-01-21T07:21:38.731Z,1000.60
2023-01-21T07:22:38.711Z,1000.58
2023-01-21T07:23:38.657Z,1000.55
2023-01-21T07:24:38.641Z,1000.55
2023-01-21T07:25:38.831Z,1000.57
2023-01-21T07:26:38.622Z,1000.58
2023-01-21T07:27:38.602Z,1000.57
2023-01-21T07:28:38.570Z,1000.59
2023-01-21T07:29:38.549Z,1000.61
2023-01-21T07:30:38.609Z,1000.62
2023-01-21T07:31:38.675Z,1000.64
2023-01-21T07:32:38.713Z,1000.62
2023-01-21T07:33:38.484Z,1000.62
2023-01-21T07:34:38.493Z,1000.63
2023-01-21T07:35:38.448Z,1000.61
2023-01-21T07:36:38.467Z,1000.65
2023-01-21T07:37:38.445Z,1000.65
2023-01-21T07:38:38.397Z,1000.68
2023-01-21T07:39:38.394Z,1000.66
2023-01-21T07:40:38.380Z,1000.62
2023-01-21T07:41:38.345Z,1000.61
2023-01-21T07:42:38.334Z,1000.62
2023-01-21T07:43:38.314Z,1000.59
2023-01-21T07:44:38.308Z,1000.59
2023-01-21T07:45:38.289Z,1000.67
2023-01-21T07:46:38.429Z,1000.60
2023-01-21T07:47:38.261Z,1000.69
2023-01-21T07:48:38.249Z,1000.67
2023-01-21T07:49:38.213Z,1000.66
2023-01-21T07:50:38.228Z,1000.66
2023-01-21T07:51:38.208Z,1000.67
2023-01-21T07:52:38.176Z,1000.65
2023-01-21T07:53:38.387Z,1000.65
2023-01-21T07:54:38.222Z,1000.69
2023-01-21T07:55:38.311Z,1000.68
2023-01-21T07:56:38.092Z,1000.68
2023-01-21T07:57:38.091Z,1000.67
2023-01-21T07:58:38.077Z,1000.72
2023-01-21T07:59:38.112Z,1000.66
2023-01-21T08:00:38.040Z,1000.67
2023-01-21T08:01:38.060Z,1000.59
2023-01-21T08:02:38.150Z,1000.67
2023-01-21T08:03:37.993Z,1000.64
2023-01-21T08:04:38.162Z,1000.68
2023-01-21T08:05:37.945Z,1000.66
2023-01-21T08:06:37.950Z,1000.67
2023-01-21T08:07:38.121Z,1000.65
2023-01-21T08:08:37.906Z,1000.63
2023-01-21T08:09:37.907Z,1000.61
2023-01-21T08:10:38.283Z,1000.54
2023-01-21T08:11:37.870Z,1000.65
2023-01-21T08:12:37.838Z,1000.60
2023-01-21T08:13:37.846Z,1000.54
2023-01-21T08:14:37.824Z,1000.55
2023-01-21T08:15:37.789Z,1000.51
2023-01-21T08:16:37.847Z,1000.56
2023-01-21T08:17:37.752Z,1000.58
2023-01-21T08:18:37.760Z,1000.52
2023-01-21T08:19:37.720Z,1000.53
2023-01-21T08:20:37.732Z,1000.52
2023-01-21T08:21:37.696Z,1000.55
2023-01-21T08:22:37.718Z,1000.56
2023-01-21T08:23:37.667Z,1000.55
2023-01-21T08:24:37.682Z,1000.55
2023-01-21T08:25:37.712Z,1000.50
2023-01-21T08:26:37.608Z,1000.56
2023-01-21T08:27:37.620Z,1000.49
2023-01-21T08:28:37.611Z,1000.51
2023-01-21T08:29:37.583Z,1000.54
2023-01-21T08:30:37.972Z,1000.53
2023-01-21T08:31:37.587Z,1000.56
2023-01-21T08:32:37.731Z,1000.53
2023-01-21T08:33:37.514Z,1000.55
2023-01-21T08:34:37.516Z,1000.54
2023-01-21T08:35:37.478Z,1000.57
2023-01-21T08:36:37.431Z,1000.56
2023-01-21T08:37:37.460Z,1000.53
2023-01-21T08:38:37.429Z,1000.57
2023-01-21T08:39:37.423Z,1000.60
2023-01-21T08:40:37.388Z,1000.57
2023-01-21T08:41:37.418Z,1000.61
2023-01-21T08:42:37.346Z,1000.62
2023-01-21T08:43:37.437Z,1000.61
2023-01-21T08:44:37.344Z,1000.62
2023-01-21T08:45:37.421Z,1000.62
2023-01-21T08:46:37.523Z,1000.63
2023-01-21T08:47:37.259Z,1000.67
2023-01-21T08:48:37.233Z,1000.65
2023-01-21T08:49:37.267Z,1000.65
2023-01-21T08:50:37.204Z,1000.63
2023-01-21T08:51:37.234Z,1000.66
2023-01-21T08:52:37.176Z,1000.64
2023-01-21T08:53:37.178Z,1000.65
2023-01-21T08:54:37.168Z,1000.65
2023-01-21T08:55:37.176Z,1000.65
2023-01-21T08:56:37.136Z,1000.67
2023-01-21T08:57:37.332Z,1000.61
2023-01-21T08:58:37.076Z,1000.66
2023-01-21T08:59:37.104Z,1000.63
2023-01-21T09:00:37.156Z,1000.64
2023-01-21T09:01:37.033Z,1000.61
2023-01-21T09:02:37.025Z,1000.63
2023-01-21T09:03:37.005Z,1000.67
2023-01-21T09:04:36.995Z,1000.69
2023-01-21T09:05:36.985Z,1000.68
2023-01-21T09:06:36.993Z,1000.70
2023-01-21T09:07:37.143Z,1000.69
2023-01-21T09:08:36.941Z,1000.68
2023-01-21T09:09:36.915Z,1000.67
2023-01-21T09:10:36.898Z,1000.63
2023-01-21T09:11:36.890Z,1000.66
2023-01-21T09:12:37.087Z,1000.62
2023-01-21T09:13:36.869Z,1000.63
2023-01-21T09:14:36.816Z,1000.64
2023-01-21T09:15:36.804Z,1000.66
2023-01-21T09:16:36.838Z,1000.63
2023-01-21T09:17:36.815Z,1000.69
2023-01-21T09:18:36.749Z,1000.71
2023-01-21T09:19:36.992Z,1000.70
2023-01-21T09:20:36.740Z,1000.71
2023-01-21T09:21:36.689Z,1000.72
2023-01-21T09:22:36.699Z,1000.75
2023-01-21T09:23:36.671Z,1000.77
2023-01-21T09:24:36.653Z,1000.75
2023-01-21T09:25:36.633Z,1000.78
2023-01-21T09:26:36.826Z,1000.76
2023-01-21T09:27:36.605Z,1000.78
2023-01-21T09:28:36.589Z,1000.77
2023-01-21T09:29:36.604Z,1000.80
2023-01-21T09:30:36.791Z,1000.76
2023-01-21T09:31:36.590Z,1000.79
2023-01-21T09:32:36.780Z,1000.79
2023-01-21T09:33:36.599Z,1000.81
2023-01-21T09:34:36.561Z,1000.82
2023-01-21T09:35:36.509Z,1000.79
2023-01-21T09:36:36.497Z,1000.83
2023-01-21T09:37:36.445Z,1000.77
2023-01-21T09:38:36.706Z,1000.81
2023-01-21T09:39:36.485Z,1000.81
2023-01-21T09:40:36.467Z,1000.84
2023-01-21T09:41:36.396Z,1000.87
2023-01-21T09:42:36.392Z,1000.83
2023-01-21T09:43:36.362Z,1000.90
2023-01-21T09:44:36.385Z,1000.89
2023-01-21T09:45:36.590Z,1000.86
2023-01-21T09:46:36.311Z,1000.88
2023-01-21T09:47:36.582Z,1000.88
2023-01-21T09:48:36.265Z,1000.90
2023-01-21T09:49:36.275Z,1000.94
2023-01-21T09:50:36.265Z,1000.92
2023-01-21T09:51:36.297Z,1000.89
2023-01-21T09:52:36.267Z,1000.94
2023-01-21T09:53:36.204Z,1000.95
2023-01-21T09:54:36.236Z,1000.94
2023-01-21T09:55:36.179Z,1000.94
2023-01-21T09:56:36.196Z,1000.93
2023-01-21T09:57:36.204Z,1000.95
2023-01-21T09:58:36.237Z,1000.94
2023-01-21T09:59:36.194Z,1000.93
2023-01-21T10:00:36.201Z,1000.89
2023-01-21T10:01:36.089Z,1000.90
2023-01-21T10:02:36.078Z,1000.96
2023-01-21T10:03:36.170Z,1000.96
2023-01-21T10:04:36.102Z,1000.97
2023-01-21T10:05:36.053Z,1001.00
2023-01-21T10:06:36.036Z,1000.98
2023-01-21T10:07:36.085Z,1001.01
2023-01-21T10:08:36.152Z,1001.04
2023-01-21T10:09:35.963Z,1001.03
2023-01-21T10:10:36.065Z,1001.05
2023-01-21T10:11:35.922Z,1001.01
2023-01-21T10:12:35.898Z,1001.04
2023-01-21T10:13:35.971Z,1001.06
2023-01-21T10:14:35.882Z,1001.04
2023-01-21T10:15:35.886Z,1001.07
2023-01-21T10:16:35.950Z,1001.07
2023-01-21T10:17:35.856Z,1001.03
2023-01-21T10:18:35.839Z,1001.09
2023-01-21T10:19:35.829Z,1001.01
2023-01-21T10:20:36.242Z,1001.04
2023-01-21T10:21:35.789Z,1001.02
2023-01-21T10:22:35.744Z,1001.05
2023-01-21T10:23:35.730Z,1001.04
2023-01-21T10:24:35.720Z,1000.99
2023-01-21T10:25:35.712Z,1001.02
2023-01-21T10:26:35.692Z,1001.04
2023-01-21T10:27:35.869Z,1001.02
2023-01-21T10:28:35.704Z,1001.01
2023-01-21T10:29:35.679Z,1001.01
2023-01-21T10:30:35.656Z,1001.00
2023-01-21T10:31:35.647Z,1001.00
2023-01-21T10:32:35.786Z,1000.97
2023-01-21T10:33:35.570Z,1001.02
2023-01-21T10:34:35.539Z,1000.95
2023-01-21T10:35:35.514Z,1000.94
2023-01-21T10:36:35.644Z,1000.97
2023-01-21T10:37:35.492Z,1000.95
2023-01-21T10:38:35.675Z,1000.97
2023-01-21T10:39:35.446Z,1001.01
2023-01-21T10:40:35.433Z,1000.98
2023-01-21T10:41:35.432Z,1001.01
2023-01-21T10:42:35.392Z,1000.98
2023-01-21T10:43:35.398Z,1001.01
2023-01-21T10:44:35.366Z,1001.02
2023-01-21T10:45:35.362Z,1001.00
2023-01-21T10:46:35.338Z,1001.01
2023-01-21T10:47:35.517Z,1000.93
2023-01-21T10:48:35.305Z,1000.92
2023-01-21T10:49:35.307Z,1000.92
2023-01-21T10:50:35.274Z,1000.95
2023-01-21T10:51:35.454Z,1000.99
2023-01-21T10:52:35.237Z,1000.97
2023-01-21T10:53:35.449Z,1001.03
2023-01-21T10:54:35.237Z,1000.98
2023-01-21T10:55:35.205Z,1000.97
2023-01-21T10:56:35.575Z,1000.96
2023-01-21T10:57:35.158Z,1001.05
2023-01-21T10:58:35.363Z,1000.97
2023-01-21T10:59:35.143Z,1000.93
2023-01-21T11:00:35.111Z,1001.01
2023-01-21T11:01:35.123Z,1000.97
2023-01-21T11:02:35.171Z,1000.92
2023-01-21T11:03:35.091Z,1001.04
2023-01-21T11:04:35.049Z,1000.98
2023-01-21T11:05:35.056Z,1001.01
2023-01-21T11:06:35.216Z,1000.98
2023-01-21T11:07:35.085Z,1001.01
2023-01-21T11:08:35.108Z,1001.05
2023-01-21T11:09:34.985Z,1001.03
2023-01-21T11:10:34.978Z,1001.01
2023-01-21T11:11:34.944Z,1000.98
2023-01-21T11:12:34.956Z,1001.02
2023-01-21T11:13:34.902Z,1000.98
2023-01-21T11:14:35.153Z,1000.98
2023-01-21T11:15:34.896Z,1000.99
2023-01-21T11:16:34.852Z,1001.03
2023-01-21T11:17:34.864Z,1000.97
2023-01-21T11:18:34.830Z,1000.99
2023-01-21T11:19:34.822Z,1000.95
2023-01-21T11:20:34.849Z,1001.03
2023-01-21T11:21:34.799Z,1001.00
2023-01-21T11:22:34.768Z,1000.96
2023-01-21T11:23:34.839Z,1000.95
2023-01-21T11:24:34.732Z,1000.98
2023-01-21T11:25:34.737Z,1001.00
2023-01-21T11:26:34.740Z,1000.92
2023-01-21T11:27:34.719Z,1000.89
2023-01-21T11:28:34.674Z,1000.85
2023-01-21T11:29:34.642Z,1000.87
2023-01-21T11:30:49.523Z,1000.87
2023-01-21T11:31:34.707Z,1000.92
2023-01-21T11:32:34.601Z,1000.92
2023-01-21T11:33:34.599Z,1000.93
2023-01-21T11:34:34.622Z,1000.85
2023-01-21T11:35:34.565Z,1000.86
2023-01-21T11:36:34.565Z,1000.87
2023-01-21T11:37:34.559Z,1000.91
2023-01-21T11:38:34.538Z,1000.89
2023-01-21T11:39:34.525Z,1000.88
2023-01-21T11:40:34.518Z,1000.85
2023-01-21T11:41:34.481Z,1000.91
2023-01-21T11:42:34.657Z,1000.80
2023-01-21T11:43:34.433Z,1000.83
2023-01-21T11:44:34.457Z,1000.82
2023-01-21T11:45:34.416Z,1000.89
2023-01-21T11:46:34.504Z,1000.89
2023-01-21T11:47:36.075Z,1000.91
2023-01-21T11:48:34.370Z,1000.93
2023-01-21T11:49:34.378Z,1000.83
2023-01-21T11:50:34.340Z,1000.83
2023-01-21T11:51:34.352Z,1000.83
2023-01-21T11:52:34.303Z,1000.81
2023-01-21T11:53:34.503Z,1000.78
2023-01-21T11:54:34.271Z,1000.78
2023-01-21T11:55:34.274Z,1000.81
2023-01-21T11:56:34.241Z,1000.74
2023-01-21T11:57:34.205Z,1000.77
2023-01-21T11:58:34.397Z,1000.71
2023-01-21T11:59:34.450Z,1000.79
2023-01-21T12:00:34.149Z,1000.75
2023-01-21T12:01:34.359Z,1000.73
2023-01-21T12:02:34.208Z,1000.75
2023-01-21T12:03:34.208Z,1000.73
2023-01-21T12:04:34.185Z,1000.71
2023-01-21T12:05:34.127Z,1000.74
2023-01-21T12:06:36.820Z,1000.71
2023-01-21T12:07:34.056Z,1000.71
2023-01-21T12:08:34.055Z,1000.67
2023-01-21T12:09:34.196Z,1000.72
2023-01-21T12:10:33.990Z,1000.76
2023-01-21T12:11:34.013Z,1000.71
2023-01-21T12:12:34.003Z,1000.69
2023-01-21T12:13:34.000Z,1000.72
2023-01-21T12:14:33.962Z,1000.69
2023-01-21T12:15:33.918Z,1000.71
2023-01-21T12:16:33.920Z,1000.65
2023-01-21T12:17:33.900Z,1000.65